Birch Creek GC
600 E Center St, Smithfield
Last Weather Update:1/30/2012 11:00:00 PM
Date
ETo
ETc
Rain
Irrigation
Req
Temp
Max
Temp
Min
Temp
Avg
Avg RH
Avg Wind
Avg Solar
inches
inches
incehs
inches
F
F
F
%
%
watts/m2
12/1/2011 0.05" 0.00" 0.00" 0.00" 38.1° 21.3° 28.8° 68.0% 5.1 MPH 113.9w/m2
12/2/2011 0.02" 0.00" 0.00" 0.00" 29.8° 14.9° 21.1° 97.3% 3.2 MPH 63.7w/m2
12/3/2011 0.03" 0.00" 0.04" -0.03" 30.2° 15.3° 21.7° 71.8% 2.8 MPH 104.9w/m2
12/4/2011 0.01" 0.00" 0.00" 0.00" 24.8° 14.1° 21.3° 77.5% 2.8 MPH 44.2w/m2
12/5/2011 0.02" 0.00" 0.00" 0.00" 20.8° 4.7° 11.6° 78.1% 3.1 MPH 114.9w/m2
12/6/2011 0.02" 0.00" 0.00" 0.00" 27.6° 5.1° 13.8° 76.8% 2.3 MPH 104.5w/m2
12/7/2011 0.02" 0.00" 0.03" -0.02" 30.7° 8.2° 18.2° 79.6% 2.4 MPH 109.4w/m2
12/8/2011 0.03" 0.00" 0.00" 0.00" 34.5° 16.8° 24.9° 84.1% 2.3 MPH 109.3w/m2
12/9/2011 0.03" 0.00" 0.00" 0.00" 34.4° 14.7° 22.8° 77.8% 2.6 MPH 105.9w/m2
12/10/2011 0.02" 0.00" 0.00" 0.00" 34.9° 14.7° 22.3° 83.9% 2.6 MPH 107.3w/m2
12/11/2011 0.02" 0.00" 0.00" 0.00" 32.1° 14.1° 22.4° 89.9% 2.1 MPH 87.3w/m2
12/12/2011 0.02" 0.00" 0.00" 0.00" 30.4° 16.3° 23.7° 83.2% 2.0 MPH 65.6w/m2
12/13/2011 0.01" 0.00" 0.00" 0.00" 30.0° 18.6° 24.8° 98.9% 2.3 MPH 36.0w/m2
12/14/2011 0.01" 0.00" 0.03" -0.02" 31.7° 22.5° 26.6° 92.5% 2.6 MPH 39.0w/m2
12/15/2011 0.01" 0.00" 0.00" 0.00" 30.2° 17.9° 22.7° 91.4% 2.6 MPH 55.6w/m2
12/16/2011 0.01" 0.00" 0.00" 0.00" 25.8° 10.8° 19.0° 95.8% 2.2 MPH 45.7w/m2
12/17/2011 0.02" 0.00" 0.00" 0.00" 28.2° 7.8° 16.0° 96.4% 1.9 MPH 86.6w/m2
12/18/2011 0.01" 0.00" 0.00" 0.00" 22.1° 12.2° 19.6° 98.9% 1.9 MPH 35.2w/m2
12/19/2011 0.02" 0.00" 0.00" 0.00" 30.5° 16.7° 21.6° 91.3% 2.7 MPH 74.1w/m2
12/20/2011 0.02" 0.00" 0.00" 0.00" 28.9° 10.0° 19.7° 92.4% 2.7 MPH 92.3w/m2
12/21/2011 0.01" 0.00" 0.01" -0.01" 29.4° 16.7° 23.9° 86.0% 3.2 MPH 46.5w/m2
12/22/2011 0.03" 0.00" 0.00" 0.00" 26.7° 10.4° 18.5° 81.4% 3.1 MPH 104.7w/m2
12/23/2011 0.02" 0.00" 0.00" 0.00" 24.9° 6.2° 14.6° 76.3% 2.6 MPH 106.9w/m2
12/24/2011 0.02" 0.00" 0.00" 0.00" 26.5° 6.3° 15.2° 78.1% 2.5 MPH 103.8w/m2
12/25/2011 0.03" 0.00" 0.01" -0.01" 34.3° 8.4° 20.3° 61.0% 2.6 MPH 104.0w/m2
12/26/2011 0.03" 0.00" 0.00" 0.00" 37.7° 12.8° 23.6° 69.7% 2.7 MPH 97.4w/m2
12/27/2011 0.03" 0.00" 0.00" 0.00" 39.9° 15.8° 27.1° 66.2% 2.7 MPH 84.7w/m2
12/28/2011 0.03" 0.00" 0.00" 0.00" 42.6° 22.5° 33.6° 49.4% 3.3 MPH 29.4w/m2
12/29/2011 0.05" 0.00" 0.00" 0.00" 50.3° 37.6° 42.5° 58.4% 4.0 MPH 48.5w/m2
12/30/2011 0.06" 0.00" 0.00" 0.00" 54.8° 34.1° 45.2° 65.4% 5.1 MPH 61.6w/m2
12/31/2011 0.04" 0.00" 0.00" 0.00" 35.9° 21.9° 29.6° 63.7% 4.9 MPH 88.0w/m2
Totals: 0.72" 0.00" 0.12" -0.10" 54.8° 4.7° 23.1° 80.0% 2.9 MPH 79.7w/m2